createdAt,value
2018-12-12T00:00:02.898Z,3
2018-12-12T00:01:02.902Z,3.06
2018-12-12T00:02:02.875Z,3.06
2018-12-12T00:03:02.882Z,3.06
2018-12-12T00:04:02.937Z,3
2018-12-12T00:05:02.940Z,3
2018-12-12T00:06:03.072Z,3
2018-12-12T00:07:02.802Z,3
2018-12-12T00:08:02.954Z,2.94
2018-12-12T00:09:02.819Z,2.94
2018-12-12T00:10:02.910Z,2.94
2018-12-12T00:11:02.954Z,2.94
2018-12-12T00:12:02.832Z,2.94
2018-12-12T00:13:02.849Z,2.94
2018-12-12T00:14:02.975Z,2.94
2018-12-12T00:15:02.814Z,3
2018-12-12T00:16:02.920Z,3
2018-12-12T00:17:02.868Z,3
2018-12-12T00:18:02.955Z,3
2018-12-12T00:19:03.586Z,3
2018-12-12T00:20:03.274Z,3
2018-12-12T00:21:02.782Z,2.94
2018-12-12T00:22:02.834Z,3
2018-12-12T00:23:03.092Z,3
2018-12-12T00:24:03.098Z,3
2018-12-12T00:25:03.223Z,2.94
2018-12-12T00:26:02.937Z,2.94
2018-12-12T00:27:02.791Z,2.94
2018-12-12T00:28:03.051Z,2.94
2018-12-12T00:29:02.894Z,2.94
2018-12-12T00:30:03.554Z,2.94
2018-12-12T00:31:02.786Z,2.94
2018-12-12T00:32:02.947Z,2.94
2018-12-12T00:33:02.867Z,2.87
2018-12-12T00:34:03.029Z,2.94
2018-12-12T00:35:02.937Z,2.87
2018-12-12T00:36:02.859Z,2.94
2018-12-12T00:37:02.800Z,2.94
2018-12-12T00:38:02.781Z,2.94
2018-12-12T00:39:02.965Z,2.94
2018-12-12T00:40:02.960Z,2.94
2018-12-12T00:41:02.982Z,2.94
2018-12-12T00:42:02.741Z,2.94
2018-12-12T00:43:02.803Z,2.94
2018-12-12T00:44:02.861Z,2.94
2018-12-12T00:45:02.895Z,2.94
2018-12-12T00:46:02.708Z,2.94
2018-12-12T00:47:02.852Z,2.94
2018-12-12T00:48:02.948Z,2.94
2018-12-12T00:49:02.769Z,2.94
2018-12-12T00:50:02.975Z,2.87
2018-12-12T00:51:02.933Z,2.94
2018-12-12T00:52:02.955Z,2.87
2018-12-12T00:53:03.321Z,2.87
2018-12-12T00:54:02.867Z,2.87
2018-12-12T00:55:02.844Z,2.87
2018-12-12T00:56:02.916Z,2.87
2018-12-12T00:57:02.854Z,2.87
2018-12-12T00:58:02.856Z,2.87
2018-12-12T00:59:02.954Z,2.87
2018-12-12T01:00:02.984Z,2.81
2018-12-12T01:01:02.866Z,2.87
2018-12-12T01:02:02.926Z,2.81
2018-12-12T01:03:02.996Z,2.87
2018-12-12T01:04:02.793Z,2.81
2018-12-12T01:05:02.946Z,2.81
2018-12-12T01:06:02.966Z,2.81
2018-12-12T01:07:02.895Z,2.81
2018-12-12T01:08:03.274Z,2.81
2018-12-12T01:09:03.115Z,2.75
2018-12-12T01:10:02.980Z,2.81
2018-12-12T01:11:02.949Z,2.75
2018-12-12T01:12:02.906Z,2.75
2018-12-12T01:13:03.002Z,2.75
2018-12-12T01:14:03.010Z,2.75
2018-12-12T01:15:03.534Z,2.75
2018-12-12T01:16:02.892Z,2.75
2018-12-12T01:17:02.959Z,2.75
2018-12-12T01:18:02.782Z,2.75
2018-12-12T01:19:02.843Z,2.75
2018-12-12T01:20:02.748Z,2.75
2018-12-12T01:21:03.471Z,2.75
2018-12-12T01:22:02.877Z,2.75
2018-12-12T01:23:02.839Z,2.69
2018-12-12T01:24:03.095Z,2.69
2018-12-12T01:25:02.829Z,2.69
2018-12-12T01:26:02.858Z,2.69
2018-12-12T01:27:02.799Z,2.69
2018-12-12T01:28:02.925Z,2.62
2018-12-12T01:29:03.131Z,2.62
2018-12-12T01:30:02.958Z,2.69
2018-12-12T01:31:02.687Z,2.62
2018-12-12T01:32:02.766Z,2.69
2018-12-12T01:33:02.811Z,2.69
2018-12-12T01:34:02.790Z,2.75
2018-12-12T01:35:02.712Z,2.75
2018-12-12T01:36:02.745Z,2.69
2018-12-12T01:37:02.837Z,2.75
2018-12-12T01:38:02.814Z,2.69
2018-12-12T01:39:02.787Z,2.75
2018-12-12T01:40:02.822Z,2.75
2018-12-12T01:41:02.732Z,2.75
2018-12-12T01:42:02.720Z,2.75
2018-12-12T01:43:02.759Z,2.75
2018-12-12T01:44:02.865Z,2.75
2018-12-12T01:45:02.737Z,2.75
2018-12-12T01:46:02.745Z,2.75
2018-12-12T01:47:02.749Z,2.75
2018-12-12T01:48:02.744Z,2.75
2018-12-12T01:49:02.751Z,2.75
2018-12-12T01:50:02.841Z,2.75
2018-12-12T01:51:02.679Z,2.75
2018-12-12T01:52:02.743Z,2.75
2018-12-12T01:53:02.755Z,2.75
2018-12-12T01:54:03.146Z,2.75
2018-12-12T01:55:02.721Z,2.75
2018-12-12T01:56:03.450Z,2.75
2018-12-12T01:57:03.485Z,2.75
2018-12-12T01:58:02.979Z,2.75
2018-12-12T01:59:02.993Z,2.75
2018-12-12T02:00:02.841Z,2.75
2018-12-12T02:01:03.568Z,2.75
2018-12-12T02:02:02.993Z,2.69
2018-12-12T02:03:02.708Z,2.75
2018-12-12T02:04:02.700Z,2.69
2018-12-12T02:05:02.826Z,2.69
2018-12-12T02:06:02.767Z,2.75
2018-12-12T02:07:03.082Z,2.69
2018-12-12T02:08:02.618Z,2.75
2018-12-12T02:09:02.704Z,2.69
2018-12-12T02:10:02.978Z,2.69
2018-12-12T02:11:02.597Z,2.69
2018-12-12T02:12:02.691Z,2.69
2018-12-12T02:13:02.698Z,2.69
2018-12-12T02:14:02.842Z,2.75
2018-12-12T02:15:03.084Z,2.69
2018-12-12T02:16:02.904Z,2.75
2018-12-12T02:17:02.710Z,2.69
2018-12-12T02:18:02.902Z,2.75
2018-12-12T02:19:02.865Z,2.75
2018-12-12T02:20:02.822Z,2.75
2018-12-12T02:21:02.724Z,2.75
2018-12-12T02:22:02.931Z,2.75
2018-12-12T02:23:03.035Z,2.75
2018-12-12T02:24:02.793Z,2.81
2018-12-12T02:25:02.801Z,2.75
2018-12-12T02:26:02.657Z,2.81
2018-12-12T02:27:02.721Z,2.81
2018-12-12T02:28:03.003Z,2.81
2018-12-12T02:29:02.647Z,2.81
2018-12-12T02:30:03.003Z,2.81
2018-12-12T02:31:02.800Z,2.81
2018-12-12T02:32:02.671Z,2.81
2018-12-12T02:33:02.663Z,2.81
2018-12-12T02:34:02.711Z,2.81
2018-12-12T02:35:02.694Z,2.87
2018-12-12T02:36:02.901Z,2.81
2018-12-12T02:37:02.942Z,2.87
2018-12-12T02:38:02.667Z,2.87
2018-12-12T02:39:03.132Z,2.87
2018-12-12T02:40:02.868Z,2.87
2018-12-12T02:41:02.678Z,2.87
2018-12-12T02:42:02.738Z,2.87
2018-12-12T02:43:02.863Z,2.87
2018-12-12T02:44:02.658Z,2.81
2018-12-12T02:45:02.727Z,2.81
2018-12-12T02:46:02.606Z,2.81
2018-12-12T02:47:02.827Z,2.81
2018-12-12T02:48:02.711Z,2.81
2018-12-12T02:49:02.698Z,2.81
2018-12-12T02:50:02.886Z,2.81
2018-12-12T02:51:02.876Z,2.81
2018-12-12T02:52:02.816Z,2.81
2018-12-12T02:53:02.791Z,2.81
2018-12-12T02:54:02.670Z,2.75
2018-12-12T02:55:02.658Z,2.81
2018-12-12T02:56:02.865Z,2.81
2018-12-12T02:57:02.893Z,2.81
2018-12-12T02:58:02.950Z,2.75
2018-12-12T02:59:02.700Z,2.75
2018-12-12T03:00:02.692Z,2.75
2018-12-12T03:01:02.858Z,2.81
2018-12-12T03:02:02.742Z,2.81
2018-12-12T03:03:02.701Z,2.81
2018-12-12T03:04:02.829Z,2.81
2018-12-12T03:05:03.363Z,2.81
2018-12-12T03:06:03.440Z,2.81
2018-12-12T03:07:02.638Z,2.75
2018-12-12T03:08:02.750Z,2.75
2018-12-12T03:09:02.541Z,2.75
2018-12-12T03:10:02.663Z,2.81
2018-12-12T03:11:02.624Z,2.81
2018-12-12T03:12:02.522Z,2.81
2018-12-12T03:13:02.805Z,2.81
2018-12-12T03:14:02.680Z,2.87
2018-12-12T03:15:02.626Z,2.87
2018-12-12T03:16:02.680Z,2.87
2018-12-12T03:17:02.576Z,2.87
2018-12-12T03:18:02.554Z,2.87
2018-12-12T03:19:02.623Z,2.87
2018-12-12T03:20:02.709Z,2.87
2018-12-12T03:21:02.559Z,2.87
2018-12-12T03:22:02.690Z,2.81
2018-12-12T03:23:02.532Z,2.81
2018-12-12T03:24:02.627Z,2.81
2018-12-12T03:25:02.564Z,2.75
2018-12-12T03:26:02.561Z,2.75
2018-12-12T03:27:02.684Z,2.75
2018-12-12T03:28:02.568Z,2.75
2018-12-12T03:29:02.559Z,2.75
2018-12-12T03:30:03.412Z,2.75
2018-12-12T03:31:02.768Z,2.75
2018-12-12T03:32:02.671Z,2.75
2018-12-12T03:33:02.539Z,2.81
2018-12-12T03:34:02.815Z,2.75
2018-12-12T03:35:02.593Z,2.75
2018-12-12T03:36:04.215Z,2.75
2018-12-12T03:37:02.539Z,2.75
2018-12-12T03:38:03.009Z,2.75
2018-12-12T03:39:02.777Z,2.75
2018-12-12T03:40:02.825Z,2.75
2018-12-12T03:41:02.629Z,2.75
2018-12-12T03:42:02.669Z,2.75
2018-12-12T03:43:03.027Z,2.81
2018-12-12T03:44:02.863Z,2.75
2018-12-12T03:45:03.437Z,2.81
2018-12-12T03:46:02.631Z,2.81
2018-12-12T03:47:02.764Z,2.75
2018-12-12T03:48:02.788Z,2.81
2018-12-12T03:49:02.759Z,2.81
2018-12-12T03:50:02.646Z,2.75
2018-12-12T03:51:03.647Z,2.81
2018-12-12T03:52:02.732Z,2.75
2018-12-12T03:53:03.053Z,2.81
2018-12-12T03:54:02.641Z,2.81
2018-12-12T03:55:02.873Z,2.81
2018-12-12T03:56:02.653Z,2.81
2018-12-12T03:57:02.755Z,2.87
2018-12-12T03:58:02.918Z,2.75
2018-12-12T03:59:02.807Z,2.81
2018-12-12T04:00:02.741Z,2.81
2018-12-12T04:01:02.616Z,2.81
2018-12-12T04:02:02.681Z,2.81
2018-12-12T04:03:02.622Z,2.81
2018-12-12T04:04:02.824Z,2.87
2018-12-12T04:05:02.801Z,2.81
2018-12-12T04:06:02.715Z,2.87
2018-12-12T04:07:02.649Z,2.81
2018-12-12T04:08:02.847Z,2.87
2018-12-12T04:09:02.852Z,2.81
2018-12-12T04:10:02.722Z,2.87
2018-12-12T04:11:02.647Z,2.81
2018-12-12T04:12:02.894Z,2.87
2018-12-12T04:13:02.712Z,2.81
2018-12-12T04:14:02.805Z,2.81
2018-12-12T04:15:02.679Z,2.81
2018-12-12T04:16:02.641Z,2.87
2018-12-12T04:17:02.906Z,2.87
2018-12-12T04:18:02.797Z,2.87
2018-12-12T04:19:02.725Z,2.87
2018-12-12T04:20:02.932Z,2.87
2018-12-12T04:21:02.678Z,2.94
2018-12-12T04:22:02.464Z,2.94
2018-12-12T04:23:02.758Z,2.87
2018-12-12T04:24:02.624Z,2.94
2018-12-12T04:25:02.732Z,2.87
2018-12-12T04:26:02.880Z,2.87
2018-12-12T04:27:02.520Z,2.87
2018-12-12T04:28:02.607Z,2.87
2018-12-12T04:29:02.691Z,2.87
2018-12-12T04:30:02.838Z,2.87
2018-12-12T04:31:02.619Z,2.87
2018-12-12T04:32:03.722Z,2.81
2018-12-12T04:33:02.715Z,2.87
2018-12-12T04:34:03.577Z,2.81
2018-12-12T04:35:02.652Z,2.81
2018-12-12T04:36:02.664Z,2.75
2018-12-12T04:37:02.764Z,2.81
2018-12-12T04:38:02.738Z,2.81
2018-12-12T04:39:02.492Z,2.87
2018-12-12T04:40:02.657Z,2.81
2018-12-12T04:41:02.640Z,2.87
2018-12-12T04:42:02.590Z,2.87
2018-12-12T04:43:02.570Z,2.81
2018-12-12T04:44:02.532Z,2.81
2018-12-12T04:45:02.817Z,2.87
2018-12-12T04:46:05.148Z,2.81
2018-12-12T04:47:03.617Z,2.81
2018-12-12T04:48:02.735Z,2.87
2018-12-12T04:49:02.456Z,2.81
2018-12-12T04:50:02.445Z,2.81
2018-12-12T04:51:02.771Z,2.87
2018-12-12T04:52:02.437Z,2.81
2018-12-12T04:53:02.512Z,2.81
2018-12-12T04:54:02.508Z,2.81
2018-12-12T04:55:02.705Z,2.87
2018-12-12T04:56:02.506Z,2.81
2018-12-12T04:57:02.578Z,2.81
2018-12-12T04:58:03.203Z,2.81
2018-12-12T04:59:02.604Z,2.81
2018-12-12T05:00:02.984Z,2.81
2018-12-12T05:01:02.628Z,2.81
2018-12-12T05:02:02.837Z,2.81
2018-12-12T05:03:02.945Z,2.81
2018-12-12T05:04:02.394Z,2.81
2018-12-12T05:05:02.476Z,2.81
2018-12-12T05:06:02.525Z,2.81
2018-12-12T05:07:02.443Z,2.75
2018-12-12T05:08:02.337Z,2.81
2018-12-12T05:09:02.375Z,2.75
2018-12-12T05:10:02.400Z,2.81
2018-12-12T05:11:02.575Z,2.81
2018-12-12T05:12:03.195Z,2.81
2018-12-12T05:13:03.788Z,2.75
2018-12-12T05:14:02.655Z,2.81
2018-12-12T05:15:02.691Z,2.81
2018-12-12T05:16:02.613Z,2.87
2018-12-12T05:17:02.722Z,2.81
2018-12-12T05:18:02.636Z,2.87
2018-12-12T05:19:02.419Z,2.81
2018-12-12T05:20:02.443Z,2.81
2018-12-12T05:21:02.401Z,2.81
2018-12-12T05:22:02.365Z,2.81
2018-12-12T05:23:02.600Z,2.81
2018-12-12T05:24:02.616Z,2.81
2018-12-12T05:25:02.511Z,2.81
2018-12-12T05:26:02.385Z,2.81
2018-12-12T05:27:02.555Z,2.81
2018-12-12T05:28:02.411Z,2.81
2018-12-12T05:29:02.505Z,2.81
2018-12-12T05:30:02.454Z,2.75
2018-12-12T05:31:02.616Z,2.81
2018-12-12T05:32:02.424Z,2.81
2018-12-12T05:33:02.413Z,2.81
2018-12-12T05:34:02.505Z,2.81
2018-12-12T05:35:02.825Z,2.87
2018-12-12T05:36:02.467Z,2.81
2018-12-12T05:37:02.618Z,2.81
2018-12-12T05:38:02.541Z,2.87
2018-12-12T05:39:02.590Z,2.87
2018-12-12T05:40:02.490Z,2.87
2018-12-12T05:41:02.442Z,2.81
2018-12-12T05:42:02.769Z,2.87
2018-12-12T05:43:02.557Z,2.81
2018-12-12T05:44:02.395Z,2.87
2018-12-12T05:45:02.766Z,2.87
2018-12-12T05:46:02.315Z,2.87
2018-12-12T05:47:02.614Z,2.87
2018-12-12T05:48:02.333Z,2.87
2018-12-12T05:49:02.439Z,2.87
2018-12-12T05:50:02.407Z,2.87
2018-12-12T05:51:02.483Z,2.87
2018-12-12T05:52:02.327Z,2.87
2018-12-12T05:53:02.323Z,2.87
2018-12-12T05:54:02.316Z,2.87
2018-12-12T05:55:02.619Z,2.87
2018-12-12T05:56:03.059Z,2.87
2018-12-12T05:57:02.622Z,2.87
2018-12-12T05:58:02.285Z,2.87
2018-12-12T05:59:02.330Z,2.87
2018-12-12T06:00:02.351Z,2.94
2018-12-12T06:01:02.361Z,2.94
2018-12-12T06:02:02.443Z,2.87
2018-12-12T06:03:02.305Z,2.94
2018-12-12T06:04:02.542Z,2.87
2018-12-12T06:05:02.651Z,2.94
2018-12-12T06:06:02.384Z,2.94
2018-12-12T06:07:02.435Z,2.94
2018-12-12T06:08:02.705Z,2.94
2018-12-12T06:09:02.279Z,2.94
2018-12-12T06:10:02.382Z,2.94
2018-12-12T06:11:02.429Z,3
2018-12-12T06:12:02.565Z,3
2018-12-12T06:13:02.462Z,3.06
2018-12-12T06:14:02.420Z,3.06
2018-12-12T06:15:02.324Z,3.06
2018-12-12T06:16:02.481Z,3.12
2018-12-12T06:17:02.561Z,3.06
2018-12-12T06:18:02.753Z,3.06
2018-12-12T06:19:02.413Z,3.12
2018-12-12T06:20:02.720Z,3.12
2018-12-12T06:21:03.134Z,3.19
2018-12-12T06:22:09.784Z,3.19
2018-12-12T06:23:02.514Z,3.19
2018-12-12T06:24:02.591Z,3.19
2018-12-12T06:25:02.906Z,3.19
2018-12-12T06:26:02.268Z,3.19
2018-12-12T06:27:02.457Z,3.25
2018-12-12T06:28:02.429Z,3.19
2018-12-12T06:29:02.284Z,3.25
2018-12-12T06:30:02.582Z,3.25
2018-12-12T06:31:02.408Z,3.25
2018-12-12T06:32:02.272Z,3.25
2018-12-12T06:33:02.243Z,3.25
2018-12-12T06:34:02.316Z,3.25
2018-12-12T06:35:02.275Z,3.25
2018-12-12T06:36:02.838Z,3.19
2018-12-12T06:37:02.386Z,3.25
2018-12-12T06:38:02.525Z,3.25
2018-12-12T06:39:02.379Z,3.31
2018-12-12T06:40:02.433Z,3.25
2018-12-12T06:41:02.576Z,3.37
2018-12-12T06:42:02.438Z,3.31
2018-12-12T06:43:02.454Z,3.31
2018-12-12T06:44:02.318Z,3.31
2018-12-12T06:45:02.430Z,3.31
2018-12-12T06:46:02.419Z,3.31
2018-12-12T06:47:02.276Z,3.31
2018-12-12T06:48:02.409Z,3.37
2018-12-12T06:49:02.407Z,3.31
2018-12-12T06:50:02.319Z,3.31
2018-12-12T06:51:02.296Z,3.37
2018-12-12T06:52:02.351Z,3.31
2018-12-12T06:53:02.334Z,3.31
2018-12-12T06:54:05.388Z,3.25
2018-12-12T06:55:02.424Z,3.31
2018-12-12T06:56:02.287Z,3.31
2018-12-12T06:57:02.233Z,3.25
2018-12-12T06:58:02.576Z,3.25
2018-12-12T06:59:02.622Z,3.25
2018-12-12T07:00:02.285Z,3.19
2018-12-12T07:01:02.528Z,3.19
2018-12-12T07:02:02.398Z,3.25
2018-12-12T07:03:02.490Z,3.19
2018-12-12T07:04:02.262Z,3.19
2018-12-12T07:05:02.249Z,3.25
2018-12-12T07:06:02.222Z,3.19
2018-12-12T07:07:02.574Z,3.25
2018-12-12T07:08:02.520Z,3.25
2018-12-12T07:09:02.403Z,3.25
2018-12-12T07:10:02.382Z,3.19
2018-12-12T07:11:02.520Z,3.25
2018-12-12T07:12:02.258Z,3.25
2018-12-12T07:13:02.583Z,3.25
2018-12-12T07:14:02.458Z,3.19
2018-12-12T07:15:02.227Z,3.25
2018-12-12T07:16:02.370Z,3.19
2018-12-12T07:17:02.683Z,3.19
2018-12-12T07:18:02.346Z,3.19
2018-12-12T07:19:02.222Z,3.25
2018-12-12T07:20:02.311Z,3.25
2018-12-12T07:21:02.679Z,3.25
2018-12-12T07:22:02.770Z,3.25
2018-12-12T07:23:02.176Z,3.25
2018-12-12T07:24:02.205Z,3.25
2018-12-12T07:25:02.295Z,3.31
2018-12-12T07:26:02.505Z,3.31
2018-12-12T07:27:02.233Z,3.25
2018-12-12T07:28:02.803Z,3.25
2018-12-12T07:29:02.505Z,3.25
2018-12-12T07:30:02.447Z,3.25
2018-12-12T07:31:02.324Z,3.25
2018-12-12T07:32:02.371Z,3.25
2018-12-12T07:33:02.516Z,3.25
2018-12-12T07:34:02.385Z,3.19
2018-12-12T07:35:02.194Z,3.19
2018-12-12T07:36:02.518Z,3.19
2018-12-12T07:37:03.044Z,3.12
2018-12-12T07:38:02.246Z,3.19
2018-12-12T07:39:02.428Z,3.12
2018-12-12T07:40:02.638Z,3.12
2018-12-12T07:41:02.192Z,3.12
2018-12-12T07:42:02.295Z,3.06
2018-12-12T07:43:02.139Z,3.06
2018-12-12T07:44:02.276Z,3.12
2018-12-12T07:45:02.298Z,3.06
2018-12-12T07:46:02.628Z,3.06
2018-12-12T07:47:02.987Z,3
2018-12-12T07:48:02.190Z,3
2018-12-12T07:49:03.026Z,2.94
2018-12-12T07:50:02.384Z,3
2018-12-12T07:51:02.552Z,2.94
2018-12-12T07:52:02.316Z,2.94
2018-12-12T07:53:02.659Z,2.87
2018-12-12T07:54:02.318Z,2.87
2018-12-12T07:55:02.227Z,2.81
2018-12-12T07:56:02.573Z,2.75
2018-12-12T07:57:02.297Z,2.75
2018-12-12T07:58:02.173Z,2.75
2018-12-12T07:59:02.368Z,2.75
2018-12-12T08:00:02.569Z,2.75
2018-12-12T08:01:03.004Z,2.75
2018-12-12T08:02:02.489Z,2.69
2018-12-12T08:03:06.886Z,2.69
2018-12-12T08:04:02.308Z,2.69
2018-12-12T08:05:02.608Z,2.69
2018-12-12T08:06:02.229Z,2.69
2018-12-12T08:07:02.283Z,2.75
2018-12-12T08:08:02.358Z,2.75
2018-12-12T08:09:02.145Z,2.75
2018-12-12T08:10:02.207Z,2.75
2018-12-12T08:11:02.391Z,2.75
2018-12-12T08:12:02.221Z,2.69
2018-12-12T08:13:02.460Z,2.69
2018-12-12T08:14:02.277Z,2.69
2018-12-12T08:15:02.761Z,2.75
2018-12-12T08:16:02.718Z,2.69
2018-12-12T08:17:02.110Z,2.75
2018-12-12T08:18:03.971Z,2.75
2018-12-12T08:19:02.503Z,2.75
2018-12-12T08:20:02.251Z,2.75
2018-12-12T08:21:02.110Z,2.75
2018-12-12T08:22:02.468Z,2.75
2018-12-12T08:23:02.476Z,2.75
2018-12-12T08:24:02.985Z,2.75
2018-12-12T08:25:02.370Z,2.81
2018-12-12T08:26:03.618Z,2.81
2018-12-12T08:27:02.152Z,2.81
2018-12-12T08:28:02.548Z,2.87
2018-12-12T08:29:02.146Z,2.87
2018-12-12T08:30:02.584Z,2.87
2018-12-12T08:31:02.651Z,2.87
2018-12-12T08:32:02.410Z,2.94
2018-12-12T08:33:02.122Z,2.94
2018-12-12T08:34:02.117Z,2.94
2018-12-12T08:35:02.187Z,2.94
2018-12-12T08:36:02.176Z,3
2018-12-12T08:37:02.696Z,2.94
2018-12-12T08:38:02.069Z,3
2018-12-12T08:39:02.625Z,3
2018-12-12T08:40:02.235Z,3
2018-12-12T08:41:02.620Z,3
2018-12-12T08:42:02.154Z,3
2018-12-12T08:43:02.987Z,3
2018-12-12T08:44:02.230Z,3
2018-12-12T08:45:02.162Z,3
2018-12-12T08:46:02.195Z,3
2018-12-12T08:47:02.220Z,3
2018-12-12T08:48:02.394Z,3
2018-12-12T08:49:02.113Z,3
2018-12-12T08:50:02.297Z,3
2018-12-12T08:51:02.178Z,3
2018-12-12T08:52:02.121Z,3
2018-12-12T08:53:02.236Z,3
2018-12-12T08:54:02.490Z,2.94
2018-12-12T08:55:02.945Z,2.94
2018-12-12T08:56:03.600Z,3
2018-12-12T08:57:02.344Z,3
2018-12-12T08:58:02.181Z,3
2018-12-12T08:59:02.257Z,3
2018-12-12T09:00:02.237Z,3
2018-12-12T09:01:02.393Z,3
2018-12-12T09:02:02.239Z,2.94
2018-12-12T09:03:03.597Z,3
2018-12-12T09:04:02.357Z,3
2018-12-12T09:05:02.283Z,3
2018-12-12T09:06:02.162Z,3
2018-12-12T09:07:02.112Z,3
2018-12-12T09:08:02.343Z,2.94
2018-12-12T09:09:02.119Z,3
2018-12-12T09:10:02.117Z,2.94
2018-12-12T09:11:02.220Z,2.94
2018-12-12T09:12:02.605Z,2.87
2018-12-12T09:13:02.907Z,2.94
2018-12-12T09:14:02.336Z,2.94
2018-12-12T09:15:02.342Z,2.94
2018-12-12T09:16:02.283Z,2.94
2018-12-12T09:17:02.307Z,2.94
2018-12-12T09:18:02.459Z,2.94
2018-12-12T09:19:02.210Z,3
2018-12-12T09:20:02.434Z,2.94
2018-12-12T09:21:02.280Z,3
2018-12-12T09:22:02.009Z,3
2018-12-12T09:23:02.108Z,3.06
2018-12-12T09:24:02.197Z,3
2018-12-12T09:25:02.408Z,3
2018-12-12T09:26:02.448Z,3.06
2018-12-12T09:27:02.210Z,3.06
2018-12-12T09:28:02.226Z,3.06
2018-12-12T09:29:02.402Z,3.06
2018-12-12T09:30:02.504Z,3.12
2018-12-12T09:31:02.140Z,3.06
2018-12-12T09:32:02.132Z,3.06
2018-12-12T09:33:02.326Z,3.12
2018-12-12T09:34:02.340Z,3.06
2018-12-12T09:35:02.122Z,3.06
2018-12-12T09:36:02.277Z,3.12
2018-12-12T09:37:02.353Z,3.06
2018-12-12T09:38:02.248Z,3.12
2018-12-12T09:39:02.429Z,3.12
2018-12-12T09:40:02.101Z,3.19
2018-12-12T09:41:02.059Z,3.19
2018-12-12T09:42:02.376Z,3.25
2018-12-12T09:43:02.278Z,3.25
2018-12-12T09:44:02.171Z,3.25
2018-12-12T09:45:02.227Z,3.25
2018-12-12T09:46:02.143Z,3.25
2018-12-12T09:47:02.401Z,3.25
2018-12-12T09:48:02.465Z,3.25
2018-12-12T09:49:02.159Z,3.25
2018-12-12T09:50:02.306Z,3.25
2018-12-12T09:51:07.880Z,3.25
2018-12-12T09:52:02.108Z,3.25
2018-12-12T09:53:02.127Z,3.25
2018-12-12T09:54:01.977Z,3.31
2018-12-12T09:55:02.260Z,3.25
2018-12-12T09:56:02.401Z,3.31
2018-12-12T09:57:02.264Z,3.37
2018-12-12T09:58:02.049Z,3.37
2018-12-12T09:59:02.083Z,3.37
2018-12-12T10:00:02.089Z,3.44
2018-12-12T10:01:01.996Z,3.44
2018-12-12T10:02:02.201Z,3.5
2018-12-12T10:03:02.114Z,3.5
2018-12-12T10:04:01.950Z,3.5
2018-12-12T10:05:02.312Z,3.56
2018-12-12T10:06:02.133Z,3.56
2018-12-12T10:07:01.974Z,3.62
2018-12-12T10:08:02.068Z,3.62
2018-12-12T10:09:01.917Z,3.69
2018-12-12T10:10:02.115Z,3.69
2018-12-12T10:11:02.145Z,3.75
2018-12-12T10:12:02.277Z,3.75
2018-12-12T10:13:02.100Z,3.81
2018-12-12T10:14:01.918Z,3.81
2018-12-12T10:15:01.992Z,3.81
2018-12-12T10:16:01.961Z,3.81
2018-12-12T10:17:02.193Z,3.81
2018-12-12T10:18:02.314Z,3.81
2018-12-12T10:19:02.144Z,3.75
2018-12-12T10:20:02.311Z,3.81
2018-12-12T10:21:02.329Z,3.75
2018-12-12T10:22:02.351Z,3.75
2018-12-12T10:23:02.099Z,3.75
2018-12-12T10:24:02.366Z,3.75
2018-12-12T10:25:02.229Z,3.75
2018-12-12T10:26:02.506Z,3.81
2018-12-12T10:27:02.324Z,3.75
2018-12-12T10:28:02.112Z,3.69
2018-12-12T10:29:02.742Z,3.69
2018-12-12T10:30:02.159Z,3.69
2018-12-12T10:31:02.104Z,3.69
2018-12-12T10:32:01.977Z,3.69
2018-12-12T10:33:02.277Z,3.69
2018-12-12T10:34:02.787Z,3.75
2018-12-12T10:35:02.129Z,3.75
2018-12-12T10:36:02.203Z,3.75
2018-12-12T10:37:01.951Z,3.75
2018-12-12T10:38:02.748Z,3.75
2018-12-12T10:39:02.204Z,3.81
2018-12-12T10:40:02.428Z,3.75
2018-12-12T10:41:02.464Z,3.75
2018-12-12T10:42:02.258Z,3.75
2018-12-12T10:43:01.948Z,3.75
2018-12-12T10:44:01.968Z,3.75
2018-12-12T10:45:02.351Z,3.75
2018-12-12T10:46:02.499Z,3.75
2018-12-12T10:47:02.056Z,3.81
2018-12-12T10:48:02.062Z,3.81
2018-12-12T10:49:02.189Z,3.87
2018-12-12T10:50:02.178Z,3.81
2018-12-12T10:51:01.862Z,3.87
2018-12-12T10:52:01.910Z,3.87
2018-12-12T10:53:02.346Z,3.87
2018-12-12T10:54:02.396Z,3.87
2018-12-12T10:55:02.153Z,3.94
2018-12-12T10:56:02.371Z,3.94
2018-12-12T10:57:02.195Z,3.94
2018-12-12T10:58:02.599Z,3.94
2018-12-12T10:59:01.921Z,3.87
2018-12-12T11:00:02.179Z,3.94
2018-12-12T11:01:02.145Z,3.94
2018-12-12T11:02:01.915Z,4
2018-12-12T11:03:02.262Z,3.94
2018-12-12T11:04:02.170Z,4.06
2018-12-12T11:05:01.943Z,4.06
2018-12-12T11:06:02.179Z,4.12
2018-12-12T11:07:02.434Z,4.06
2018-12-12T11:08:02.197Z,4.19
2018-12-12T11:09:01.876Z,4.19
2018-12-12T11:10:01.963Z,4.19
2018-12-12T11:11:02.179Z,4.19
2018-12-12T11:12:02.383Z,4.25
2018-12-12T11:13:02.231Z,4.19
2018-12-12T11:14:01.889Z,4.19
2018-12-12T11:15:01.983Z,4.19
2018-12-12T11:16:01.832Z,4.25
2018-12-12T11:17:02.309Z,4.19
2018-12-12T11:18:02.180Z,4.25
2018-12-12T11:19:02.644Z,4.31
2018-12-12T11:20:02.377Z,4.25
2018-12-12T11:21:03.836Z,4.31
2018-12-12T11:22:15.495Z,4.31
2018-12-12T11:23:02.032Z,4.31
2018-12-12T11:24:04.624Z,4.31
2018-12-12T11:25:02.137Z,4.31
2018-12-12T11:26:02.115Z,4.31
2018-12-12T11:27:01.939Z,4.37
2018-12-12T11:28:01.862Z,4.37
2018-12-12T11:29:02.045Z,4.37
2018-12-12T11:30:01.881Z,4.31
2018-12-12T11:31:02.172Z,4.37
2018-12-12T11:32:01.889Z,4.44
2018-12-12T11:33:03.138Z,4.5
2018-12-12T11:34:01.869Z,4.5
2018-12-12T11:35:02.692Z,4.5
2018-12-12T11:36:01.858Z,4.56
2018-12-12T11:37:01.821Z,4.62
2018-12-12T11:38:01.893Z,4.62
2018-12-12T11:39:01.867Z,4.62
2018-12-12T11:40:02.278Z,4.62
2018-12-12T11:41:02.098Z,4.56
2018-12-12T11:42:01.833Z,4.62
2018-12-12T11:43:02.588Z,4.62
2018-12-12T11:44:01.820Z,4.69
2018-12-12T11:45:01.999Z,4.69
2018-12-12T11:46:01.960Z,4.81
2018-12-12T11:47:01.795Z,4.81
2018-12-12T11:48:01.816Z,4.87
2018-12-12T11:49:01.841Z,4.87
2018-12-12T11:50:02.384Z,4.94
2018-12-12T11:51:02.174Z,4.87
2018-12-12T11:52:01.925Z,4.87
2018-12-12T11:53:02.765Z,4.87
2018-12-12T11:54:01.802Z,4.94
2018-12-12T11:55:01.933Z,4.94
2018-12-12T11:56:01.974Z,4.87
2018-12-12T11:57:01.774Z,4.87
2018-12-12T11:58:02.131Z,4.81
2018-12-12T11:59:02.626Z,4.81
2018-12-12T12:00:02.303Z,4.69
2018-12-12T12:01:01.892Z,4.69
2018-12-12T12:02:01.953Z,4.69
2018-12-12T12:03:01.857Z,4.75
2018-12-12T12:04:01.834Z,4.69
2018-12-12T12:05:02.021Z,4.75
2018-12-12T12:06:02.199Z,4.75
2018-12-12T12:07:01.895Z,4.75
2018-12-12T12:08:01.922Z,4.75
2018-12-12T12:09:02.122Z,4.75
2018-12-12T12:10:02.072Z,4.75
2018-12-12T12:11:01.858Z,4.81
2018-12-12T12:12:02.038Z,4.87
2018-12-12T12:13:02.615Z,4.87
2018-12-12T12:14:02.309Z,4.81
2018-12-12T12:15:01.851Z,4.81
2018-12-12T12:16:01.866Z,4.81
2018-12-12T12:17:01.769Z,4.81
2018-12-12T12:18:01.940Z,4.81
2018-12-12T12:19:01.837Z,4.87
2018-12-12T12:20:01.880Z,4.87
2018-12-12T12:21:02.038Z,4.87
2018-12-12T12:22:01.929Z,4.87
2018-12-12T12:23:01.897Z,4.94
2018-12-12T12:24:01.867Z,4.94
2018-12-12T12:25:01.787Z,5
2018-12-12T12:26:01.964Z,5.06
2018-12-12T12:27:01.850Z,5.06
2018-12-12T12:28:01.861Z,5.12
2018-12-12T12:29:02.122Z,5.06
2018-12-12T12:30:02.042Z,5.12
2018-12-12T12:31:01.772Z,5.06
2018-12-12T12:32:01.920Z,5.12
2018-12-12T12:33:02.025Z,5.12
2018-12-12T12:34:03.721Z,5.12
2018-12-12T12:35:01.800Z,5.12
2018-12-12T12:36:01.791Z,5.06
2018-12-12T12:37:02.630Z,5.06
2018-12-12T12:38:01.889Z,5.06
2018-12-12T12:39:01.884Z,5.06
2018-12-12T12:40:01.805Z,5.06
2018-12-12T12:41:01.757Z,5.06
2018-12-12T12:42:01.814Z,5
2018-12-12T12:43:01.737Z,5
2018-12-12T12:44:02.001Z,5
2018-12-12T12:45:01.733Z,4.94
2018-12-12T12:46:02.083Z,4.87
2018-12-12T12:47:01.722Z,4.87
2018-12-12T12:48:01.929Z,4.87
2018-12-12T12:49:01.919Z,4.87
2018-12-12T12:50:01.969Z,4.87
2018-12-12T12:51:02.702Z,4.94
2018-12-12T12:52:01.730Z,4.87
2018-12-12T12:53:02.433Z,4.87
2018-12-12T12:54:01.966Z,4.81
2018-12-12T12:55:01.803Z,4.87
2018-12-12T12:56:01.826Z,4.87
2018-12-12T12:57:01.881Z,4.75
2018-12-12T12:58:02.264Z,4.81
2018-12-12T12:59:01.764Z,4.81
2018-12-12T13:00:01.767Z,4.75
2018-12-12T13:01:01.846Z,4.75
2018-12-12T13:02:01.856Z,4.81
2018-12-12T13:03:02.116Z,4.81
2018-12-12T13:04:01.867Z,4.87
2018-12-12T13:05:01.753Z,4.81
2018-12-12T13:06:01.745Z,4.87
2018-12-12T13:07:01.682Z,4.81
2018-12-12T13:08:01.996Z,4.87
2018-12-12T13:09:01.755Z,4.87
2018-12-12T13:10:02.025Z,4.87
2018-12-12T13:11:01.881Z,4.87
2018-12-12T13:12:03.037Z,4.87
2018-12-12T13:13:02.217Z,4.94
2018-12-12T13:14:01.927Z,4.87
2018-12-12T13:15:02.415Z,4.81
2018-12-12T13:16:01.742Z,4.75
2018-12-12T13:17:01.754Z,4.75
2018-12-12T13:18:01.909Z,4.69
2018-12-12T13:19:01.990Z,4.69
2018-12-12T13:20:01.918Z,4.62
2018-12-12T13:21:01.754Z,4.62
2018-12-12T13:22:01.924Z,4.62
2018-12-12T13:23:01.696Z,4.69
2018-12-12T13:24:01.659Z,4.69